Jonesville, Kentucky
Current Conditions -  °F | °C
As of 8:52 PM on Monday 24 Nov 2014 (Local Time) from KCVG Reporting Station
Overcast Overcast  
Wind Chill: 37°   Ceiling: 3000
Heat Index: 43°   Visibility: 10mi
Dew Point: 31°   Wind: 10mph
Humidity: 62%   Direction: 260°W
Pressure: 29.89"   Gusts: NA
Location:  38.64°N, 84.78°W
Report Text: KCVG 250152Z 26009KT 10SM BKN030 OVC041 06/M01 A2989 RMK AO2 SLP119 T00611006
Loading
Personal Weather Stations






























Interactive Weather Map New forecast layout! Learn more

10-Day Weather Forecast

Advertisements
Track Severe Weather on mobile